Terminal Aerodrome Forecast
Issued by NWS Omaha/Valley, NE

Home | Current Version | Previous Version | Text Only | Print | Product List | Glossary On
Versions: 1 2 3 4 5 6 7 8 9 10 11 12 13 14 15
000
FTUS43 KOAX 281721
TAFLNK
TAF
KLNK 281721Z 2818/2918 32012KT P6SM SKC
     FM290300 31004KT P6SM SKC
     FM290900 31004KT P6SM FEW200
     FM291400 33010KT P6SM FEW250=

USA.gov is the U.S. government's official web portal to all federal, state and local government web resources and services.